sensor_id;sensor_type;location;lat;lon;timestamp;pressure;altitude;pressure_sealevel;temperature;humidity
40994;BME280;26722;43.212;27.932;2023-05-28T00:01:48;55027.41;;;-146.72;81.16
40994;BME280;26722;43.212;27.932;2023-05-28T00:04:14;55023.19;;;-146.72;81.28
40994;BME280;26722;43.212;27.932;2023-05-28T00:06:40;55023.19;;;-146.72;81.53
40994;BME280;26722;43.212;27.932;2023-05-28T00:09:07;55035.88;;;-146.72;81.42
40994;BME280;26722;43.212;27.932;2023-05-28T00:11:32;55029.53;;;-146.72;81.01
40994;BME280;26722;43.212;27.932;2023-05-28T00:13:57;55050.66;;;-146.72;81.32
40994;BME280;26722;43.212;27.932;2023-05-28T00:16:23;55040.09;;;-146.72;81.72
40994;BME280;26722;43.212;27.932;2023-05-28T00:18:48;55040.09;;;-146.72;81.68
40994;BME280;26722;43.212;27.932;2023-05-28T00:21:13;55031.66;;;-146.72;82.10
40994;BME280;26722;43.212;27.932;2023-05-28T00:23:38;55027.41;;;-146.72;81.88
40994;BME280;26722;43.212;27.932;2023-05-28T00:26:04;55035.88;;;-146.72;81.87
40994;BME280;26722;43.212;27.932;2023-05-28T00:28:29;55035.88;;;-146.72;82.00
40994;BME280;26722;43.212;27.932;2023-05-28T00:30:54;55052.75;;;-146.72;82.04
40994;BME280;26722;43.212;27.932;2023-05-28T00:33:20;55035.88;;;-146.72;81.64
40994;BME280;26722;43.212;27.932;2023-05-28T00:35:45;55031.66;;;-146.72;81.33
40994;BME280;26722;43.212;27.932;2023-05-28T00:38:11;55048.53;;;-146.72;81.73
40994;BME280;26722;43.212;27.932;2023-05-28T00:40:36;55031.66;;;-146.72;81.73
40994;BME280;26722;43.212;27.932;2023-05-28T00:43:01;55031.66;;;-146.72;81.62
40994;BME280;26722;43.212;27.932;2023-05-28T00:45:27;55037.97;;;-146.72;81.48
40994;BME280;26722;43.212;27.932;2023-05-28T00:47:52;55040.09;;;-146.72;81.74
40994;BME280;26722;43.212;27.932;2023-05-28T00:50:17;55048.53;;;-146.72;81.46
40994;BME280;26722;43.212;27.932;2023-05-28T00:52:43;55037.97;;;-146.72;81.59
40994;BME280;26722;43.212;27.932;2023-05-28T00:55:15;55040.09;;;-146.72;81.23
40994;BME280;26722;43.212;27.932;2023-05-28T00:57:41;55016.88;;;-146.72;81.06
40994;BME280;26722;43.212;27.932;2023-05-28T01:00:07;55035.88;;;-146.72;80.94
40994;BME280;26722;43.212;27.932;2023-05-28T01:02:33;55027.41;;;-146.72;80.77
40994;BME280;26722;43.212;27.932;2023-05-28T01:04:59;55037.97;;;-146.72;81.05
40994;BME280;26722;43.212;27.932;2023-05-28T01:07:24;55029.53;;;-146.72;80.46
40994;BME280;26722;43.212;27.932;2023-05-28T01:09:49;55040.09;;;-146.72;80.48
40994;BME280;26722;43.212;27.932;2023-05-28T01:12:14;55035.88;;;-146.72;80.51
40994;BME280;26722;43.212;27.932;2023-05-28T01:14:40;55031.66;;;-146.72;80.25
40994;BME280;26722;43.212;27.932;2023-05-28T01:17:06;55033.75;;;-146.72;80.19
40994;BME280;26722;43.212;27.932;2023-05-28T01:19:31;55031.66;;;-146.72;79.78
40994;BME280;26722;43.212;27.932;2023-05-28T01:22:06;55018.97;;;-146.72;79.70
40994;BME280;26722;43.212;27.932;2023-05-28T01:24:32;55037.97;;;-146.72;79.97
40994;BME280;26722;43.212;27.932;2023-05-28T01:26:58;55027.41;;;-146.72;79.48
40994;BME280;26722;43.212;27.932;2023-05-28T01:29:24;55023.19;;;-146.72;79.41
40994;BME280;26722;43.212;27.932;2023-05-28T01:31:49;55023.19;;;-146.72;79.46
40994;BME280;26722;43.212;27.932;2023-05-28T01:34:14;55027.41;;;-146.72;79.51
40994;BME280;26722;43.212;27.932;2023-05-28T01:36:42;55027.41;;;-146.72;79.20
40994;BME280;26722;43.212;27.932;2023-05-28T01:39:08;55018.97;;;-146.72;79.49
40994;BME280;26722;43.212;27.932;2023-05-28T01:41:37;55025.31;;;-146.72;79.56
40994;BME280;26722;43.212;27.932;2023-05-28T01:44:03;55033.75;;;-146.72;79.44
40994;BME280;26722;43.212;27.932;2023-05-28T01:46:28;55023.19;;;-146.72;79.68
40994;BME280;26722;43.212;27.932;2023-05-28T01:48:54;55023.19;;;-146.72;79.72
40994;BME280;26722;43.212;27.932;2023-05-28T01:51:23;55018.97;;;-146.72;79.71
40994;BME280;26722;43.212;27.932;2023-05-28T01:53:48;55016.88;;;-146.72;79.80
40994;BME280;26722;43.212;27.932;2023-05-28T01:56:13;55027.41;;;-146.72;80.11
40994;BME280;26722;43.212;27.932;2023-05-28T01:58:39;55018.97;;;-146.72;80.06
40994;BME280;26722;43.212;27.932;2023-05-28T02:01:14;55027.41;;;-146.72;80.30
40994;BME280;26722;43.212;27.932;2023-05-28T02:03:41;55018.97;;;-146.72;80.43
40994;BME280;26722;43.212;27.932;2023-05-28T02:06:08;55037.97;;;-146.72;80.27
40994;BME280;26722;43.212;27.932;2023-05-28T02:08:34;55018.97;;;-146.72;80.42
40994;BME280;26722;43.212;27.932;2023-05-28T02:10:59;55023.19;;;-146.72;80.43
40994;BME280;26722;43.212;27.932;2023-05-28T02:13:24;55021.09;;;-146.72;80.66
40994;BME280;26722;43.212;27.932;2023-05-28T02:15:53;55052.75;;;-146.72;81.10
40994;BME280;26722;43.212;27.932;2023-05-28T02:18:18;55035.88;;;-146.72;81.28
40994;BME280;26722;43.212;27.932;2023-05-28T02:20:44;55033.75;;;-146.72;81.30
40994;BME280;26722;43.212;27.932;2023-05-28T02:23:09;55033.75;;;-146.72;81.35
40994;BME280;26722;43.212;27.932;2023-05-28T02:25:35;55014.75;;;-146.72;81.64
40994;BME280;26722;43.212;27.932;2023-05-28T02:28:00;55033.75;;;-146.72;82.10
40994;BME280;26722;43.212;27.932;2023-05-28T02:30:25;55023.19;;;-146.72;82.73
40994;BME280;26722;43.212;27.932;2023-05-28T02:32:51;55027.41;;;-146.72;82.45
40994;BME280;26722;43.212;27.932;2023-05-28T02:35:16;55023.19;;;-146.72;82.37
40994;BME280;26722;43.212;27.932;2023-05-28T02:37:43;55031.66;;;-146.72;82.08
40994;BME280;26722;43.212;27.932;2023-05-28T02:40:08;55018.97;;;-146.72;81.89
40994;BME280;26722;43.212;27.932;2023-05-28T02:42:34;55031.66;;;-146.72;81.94
40994;BME280;26722;43.212;27.932;2023-05-28T02:45:00;55029.53;;;-146.72;82.59
40994;BME280;26722;43.212;27.932;2023-05-28T02:47:25;55040.09;;;-146.72;82.85
40994;BME280;26722;43.212;27.932;2023-05-28T02:49:50;55014.75;;;-146.72;82.32
40994;BME280;26722;43.212;27.932;2023-05-28T02:52:16;55023.19;;;-146.72;82.56
40994;BME280;26722;43.212;27.932;2023-05-28T02:54:41;55027.41;;;-146.72;82.66
40994;BME280;26722;43.212;27.932;2023-05-28T02:57:06;55033.75;;;-146.72;82.66
40994;BME280;26722;43.212;27.932;2023-05-28T02:59:32;55040.09;;;-146.72;82.76
40994;BME280;26722;43.212;27.932;2023-05-28T03:01:57;55040.09;;;-146.72;82.79
40994;BME280;26722;43.212;27.932;2023-05-28T03:04:23;55031.66;;;-146.72;83.04
40994;BME280;26722;43.212;27.932;2023-05-28T03:06:48;55035.88;;;-146.72;82.97
40994;BME280;26722;43.212;27.932;2023-05-28T03:09:14;55040.09;;;-146.72;82.75
40994;BME280;26722;43.212;27.932;2023-05-28T03:11:41;55040.09;;;-146.72;82.40
40994;BME280;26722;43.212;27.932;2023-05-28T03:14:06;55010.53;;;-146.72;82.15
40994;BME280;26722;43.212;27.932;2023-05-28T03:16:31;55016.88;;;-146.72;82.33
40994;BME280;26722;43.212;27.932;2023-05-28T03:18:57;55025.31;;;-146.72;81.33
40994;BME280;26722;43.212;27.932;2023-05-28T03:21:23;55027.41;;;-146.72;80.82
40994;BME280;26722;43.212;27.932;2023-05-28T03:23:48;55029.53;;;-146.72;81.35
40994;BME280;26722;43.212;27.932;2023-05-28T03:26:13;55014.75;;;-146.72;80.74
40994;BME280;26722;43.212;27.932;2023-05-28T03:28:39;55027.41;;;-146.72;80.51
40994;BME280;26722;43.212;27.932;2023-05-28T03:31:04;55014.75;;;-146.72;79.84
40994;BME280;26722;43.212;27.932;2023-05-28T03:33:30;55023.19;;;-146.72;79.30
40994;BME280;26722;43.212;27.932;2023-05-28T03:35:55;55023.19;;;-146.72;79.44
40994;BME280;26722;43.212;27.932;2023-05-28T03:38:20;55029.53;;;-146.72;78.97
40994;BME280;26722;43.212;27.932;2023-05-28T03:40:46;55012.63;;;-146.72;78.64
40994;BME280;26722;43.212;27.932;2023-05-28T03:43:11;55014.75;;;-146.72;78.48
40994;BME280;26722;43.212;27.932;2023-05-28T03:45:36;55031.66;;;-146.72;78.42
40994;BME280;26722;43.212;27.932;2023-05-28T03:48:01;55002.09;;;-146.72;77.52
40994;BME280;26722;43.212;27.932;2023-05-28T03:50:28;55012.63;;;-146.72;76.98
40994;BME280;26722;43.212;27.932;2023-05-28T03:52:53;55023.19;;;-146.72;76.51
40994;BME280;26722;43.212;27.932;2023-05-28T03:55:18;54997.88;;;-146.72;75.07
40994;BME280;26722;43.212;27.932;2023-05-28T03:57:44;55002.09;;;-146.72;75.28
40994;BME280;26722;43.212;27.932;2023-05-28T04:00:09;55031.66;;;-146.72;74.86
40994;BME280;26722;43.212;27.932;2023-05-28T04:02:35;55014.75;;;-146.72;74.90
40994;BME280;26722;43.212;27.932;2023-05-28T04:05:00;55010.53;;;-146.72;74.77
40994;BME280;26722;43.212;27.932;2023-05-28T04:07:26;55023.19;;;-146.72;74.78
40994;BME280;26722;43.212;27.932;2023-05-28T04:09:51;55016.88;;;-146.72;74.65
40994;BME280;26722;43.212;27.932;2023-05-28T04:12:17;55027.41;;;-146.72;74.54
40994;BME280;26722;43.212;27.932;2023-05-28T04:14:42;55023.19;;;-146.72;73.81
40994;BME280;26722;43.212;27.932;2023-05-28T04:17:11;55006.31;;;-146.72;73.27
40994;BME280;26722;43.212;27.932;2023-05-28T04:19:38;55012.63;;;-146.72;73.35
40994;BME280;26722;43.212;27.932;2023-05-28T04:22:03;55018.97;;;-146.72;72.99
40994;BME280;26722;43.212;27.932;2023-05-28T04:24:29;55014.75;;;-146.72;72.79
40994;BME280;26722;43.212;27.932;2023-05-28T04:26:54;55012.63;;;-146.72;73.62
40994;BME280;26722;43.212;27.932;2023-05-28T04:29:21;54997.88;;;-146.72;73.36
40994;BME280;26722;43.212;27.932;2023-05-28T04:31:48;54997.88;;;-146.72;73.46
40994;BME280;26722;43.212;27.932;2023-05-28T04:34:14;55002.09;;;-146.72;73.73
40994;BME280;26722;43.212;27.932;2023-05-28T04:36:42;54999.97;;;-146.72;74.03
40994;BME280;26722;43.212;27.932;2023-05-28T04:39:08;55006.31;;;-146.72;74.26
40994;BME280;26722;43.212;27.932;2023-05-28T04:41:33;55002.09;;;-146.72;74.08
40994;BME280;26722;43.212;27.932;2023-05-28T04:43:59;55018.97;;;-146.72;74.07
40994;BME280;26722;43.212;27.932;2023-05-28T04:46:24;55010.53;;;-146.72;74.54
40994;BME280;26722;43.212;27.932;2023-05-28T04:48:51;55002.09;;;-146.72;73.56
40994;BME280;26722;43.212;27.932;2023-05-28T04:51:16;55004.19;;;-146.72;72.96
40994;BME280;26722;43.212;27.932;2023-05-28T04:53:43;54997.88;;;-146.72;72.94
40994;BME280;26722;43.212;27.932;2023-05-28T04:56:08;54997.88;;;-146.72;73.42
40994;BME280;26722;43.212;27.932;2023-05-28T04:58:34;55014.75;;;-146.72;73.02
40994;BME280;26722;43.212;27.932;2023-05-28T05:01:00;55004.19;;;-146.72;72.73
40994;BME280;26722;43.212;27.932;2023-05-28T05:03:25;55010.53;;;-146.72;72.07
40994;BME280;26722;43.212;27.932;2023-05-28T05:05:50;54991.53;;;-146.72;72.15
40994;BME280;26722;43.212;27.932;2023-05-28T05:08:16;55014.75;;;-146.72;71.73
40994;BME280;26722;43.212;27.932;2023-05-28T05:10:41;55010.53;;;-146.72;71.58
40994;BME280;26722;43.212;27.932;2023-05-28T05:13:07;54995.75;;;-146.72;70.10
40994;BME280;26722;43.212;27.932;2023-05-28T05:15:32;54993.63;;;-146.72;70.36
40994;BME280;26722;43.212;27.932;2023-05-28T05:17:58;55004.19;;;-146.72;70.15
40994;BME280;26722;43.212;27.932;2023-05-28T05:20:23;55002.09;;;-146.72;70.95
40994;BME280;26722;43.212;27.932;2023-05-28T05:22:48;54991.53;;;-146.72;70.70
40994;BME280;26722;43.212;27.932;2023-05-28T05:25:15;54987.31;;;-146.72;70.16
40994;BME280;26722;43.212;27.932;2023-05-28T05:27:40;55006.31;;;-146.72;70.04
40994;BME280;26722;43.212;27.932;2023-05-28T05:30:06;54997.88;;;-146.72;70.29
40994;BME280;26722;43.212;27.932;2023-05-28T05:32:31;55010.53;;;-146.72;70.01
40994;BME280;26722;43.212;27.932;2023-05-28T05:34:56;54997.88;;;-146.72;70.29
40994;BME280;26722;43.212;27.932;2023-05-28T05:37:22;54989.41;;;-146.72;71.13
40994;BME280;26722;43.212;27.932;2023-05-28T05:39:48;55010.53;;;-146.72;71.55
40994;BME280;26722;43.212;27.932;2023-05-28T05:42:13;54997.88;;;-146.72;72.10
40994;BME280;26722;43.212;27.932;2023-05-28T05:44:38;55021.09;;;-146.72;72.49
40994;BME280;26722;43.212;27.932;2023-05-28T05:47:04;54993.63;;;-146.72;73.35
40994;BME280;26722;43.212;27.932;2023-05-28T05:49:29;55002.09;;;-146.72;74.25
40994;BME280;26722;43.212;27.932;2023-05-28T05:51:54;55025.31;;;-146.72;74.84
40994;BME280;26722;43.212;27.932;2023-05-28T05:54:20;54989.41;;;-146.72;74.67
40994;BME280;26722;43.212;27.932;2023-05-28T05:56:45;55006.31;;;-146.72;74.75
40994;BME280;26722;43.212;27.932;2023-05-28T05:59:10;54997.88;;;-146.72;74.84
40994;BME280;26722;43.212;27.932;2023-05-28T06:01:36;55014.75;;;-146.72;75.36
40994;BME280;26722;43.212;27.932;2023-05-28T06:04:01;54989.41;;;-146.72;75.37
40994;BME280;26722;43.212;27.932;2023-05-28T06:06:26;55012.63;;;-146.72;75.48
40994;BME280;26722;43.212;27.932;2023-05-28T06:08:52;55014.75;;;-146.72;76.10
40994;BME280;26722;43.212;27.932;2023-05-28T06:11:17;54985.19;;;-146.72;76.49
40994;BME280;26722;43.212;27.932;2023-05-28T06:13:43;55010.53;;;-146.72;76.85
40994;BME280;26722;43.212;27.932;2023-05-28T06:16:08;55006.31;;;-146.72;77.02
40994;BME280;26722;43.212;27.932;2023-05-28T06:18:33;55027.41;;;-146.72;77.16
40994;BME280;26722;43.212;27.932;2023-05-28T06:20:59;55010.53;;;-146.72;77.63
40994;BME280;26722;43.212;27.932;2023-05-28T06:23:24;55016.88;;;-146.72;77.81
40994;BME280;26722;43.212;27.932;2023-05-28T06:25:50;55002.09;;;-146.72;78.16
40994;BME280;26722;43.212;27.932;2023-05-28T06:28:15;55010.53;;;-146.72;78.59
40994;BME280;26722;43.212;27.932;2023-05-28T06:30:41;55012.63;;;-146.72;79.24
40994;BME280;26722;43.212;27.932;2023-05-28T06:33:06;55014.75;;;-146.72;80.04
40994;BME280;26722;43.212;27.932;2023-05-28T06:35:31;55031.66;;;-146.72;80.50
40994;BME280;26722;43.212;27.932;2023-05-28T06:37:57;55031.66;;;-146.72;81.02
40994;BME280;26722;43.212;27.932;2023-05-28T06:40:22;55002.09;;;-146.72;80.72
40994;BME280;26722;43.212;27.932;2023-05-28T06:42:47;55018.97;;;-146.72;81.14
40994;BME280;26722;43.212;27.932;2023-05-28T06:45:13;55014.75;;;-146.72;81.67
40994;BME280;26722;43.212;27.932;2023-05-28T06:47:39;55012.63;;;-146.72;81.80
40994;BME280;26722;43.212;27.932;2023-05-28T06:50:04;54995.75;;;-146.72;81.65
40994;BME280;26722;43.212;27.932;2023-05-28T06:52:30;55010.53;;;-146.72;82.09
40994;BME280;26722;43.212;27.932;2023-05-28T06:54:55;54997.88;;;-146.72;82.83
40994;BME280;26722;43.212;27.932;2023-05-28T06:57:20;54997.88;;;-146.72;82.89
40994;BME280;26722;43.212;27.932;2023-05-28T06:59:46;55002.09;;;-146.72;83.49
40994;BME280;26722;43.212;27.932;2023-05-28T07:02:11;54997.88;;;-146.72;83.37
40994;BME280;26722;43.212;27.932;2023-05-28T07:04:36;55016.88;;;-146.72;83.89
40994;BME280;26722;43.212;27.932;2023-05-28T07:07:03;55014.75;;;-146.72;83.57
40994;BME280;26722;43.212;27.932;2023-05-28T07:09:28;55006.31;;;-146.72;82.83
40994;BME280;26722;43.212;27.932;2023-05-28T07:11:54;55010.53;;;-146.72;81.89
40994;BME280;26722;43.212;27.932;2023-05-28T07:14:20;55027.41;;;-146.72;82.54
40994;BME280;26722;43.212;27.932;2023-05-28T07:16:45;55002.09;;;-146.72;81.80
40994;BME280;26722;43.212;27.932;2023-05-28T07:19:11;54987.31;;;-146.72;81.24
40994;BME280;26722;43.212;27.932;2023-05-28T07:21:36;54997.88;;;-146.72;80.40
40994;BME280;26722;43.212;27.932;2023-05-28T07:24:02;54999.97;;;-146.72;79.22
40994;BME280;26722;43.212;27.932;2023-05-28T07:26:28;54997.88;;;-146.72;78.33
40994;BME280;26722;43.212;27.932;2023-05-28T07:28:53;54989.41;;;-146.72;77.06
40994;BME280;26722;43.212;27.932;2023-05-28T07:31:18;54964.09;;;-146.72;76.92
40994;BME280;26722;43.212;27.932;2023-05-28T07:33:44;54972.53;;;-146.72;74.15
40994;BME280;26722;43.212;27.932;2023-05-28T07:36:09;54968.31;;;-146.72;72.24
40994;BME280;26722;43.212;27.932;2023-05-28T07:38:35;54957.75;;;-146.72;70.76
40994;BME280;26722;43.212;27.932;2023-05-28T07:41:00;54966.19;;;-146.72;70.12
40994;BME280;26722;43.212;27.932;2023-05-28T07:43:25;54942.97;;;-146.72;69.02
40994;BME280;26722;43.212;27.932;2023-05-28T07:45:51;54955.63;;;-146.72;68.13
40994;BME280;26722;43.212;27.932;2023-05-28T07:48:16;54957.75;;;-146.72;68.52
40994;BME280;26722;43.212;27.932;2023-05-28T07:50:41;54955.63;;;-146.72;67.80
40994;BME280;26722;43.212;27.932;2023-05-28T07:53:07;54955.63;;;-146.72;68.27
40994;BME280;26722;43.212;27.932;2023-05-28T07:55:32;54968.31;;;-146.72;69.35
40994;BME280;26722;43.212;27.932;2023-05-28T07:57:57;54972.53;;;-146.72;69.17
40994;BME280;26722;43.212;27.932;2023-05-28T08:00:24;54976.75;;;-146.72;69.81
40994;BME280;26722;43.212;27.932;2023-05-28T08:02:50;54989.41;;;-146.72;70.55
40994;BME280;26722;43.212;27.932;2023-05-28T08:05:15;54989.41;;;-146.72;70.33
40994;BME280;26722;43.212;27.932;2023-05-28T08:07:41;54980.97;;;-146.72;71.01
40994;BME280;26722;43.212;27.932;2023-05-28T08:10:06;54993.63;;;-146.72;71.92
40994;BME280;26722;43.212;27.932;2023-05-28T08:12:32;54968.31;;;-146.72;71.94
40994;BME280;26722;43.212;27.932;2023-05-28T08:14:57;54997.88;;;-146.72;72.44
40994;BME280;26722;43.212;27.932;2023-05-28T08:17:22;54989.41;;;-146.72;73.20
40994;BME280;26722;43.212;27.932;2023-05-28T08:19:48;54989.41;;;-146.72;74.22
40994;BME280;26722;43.212;27.932;2023-05-28T08:22:14;55006.31;;;-146.72;75.54
40994;BME280;26722;43.212;27.932;2023-05-28T08:24:39;54985.19;;;-146.72;76.51
40994;BME280;26722;43.212;27.932;2023-05-28T08:27:04;55010.53;;;-146.72;76.97
40994;BME280;26722;43.212;27.932;2023-05-28T08:29:31;54997.88;;;-146.72;77.60
40994;BME280;26722;43.212;27.932;2023-05-28T08:31:56;54980.97;;;-146.72;77.25
40994;BME280;26722;43.212;27.932;2023-05-28T08:34:23;54989.41;;;-146.72;76.66
40994;BME280;26722;43.212;27.932;2023-05-28T08:36:49;54997.88;;;-146.72;74.70
40994;BME280;26722;43.212;27.932;2023-05-28T08:39:14;54972.53;;;-146.72;73.33
40994;BME280;26722;43.212;27.932;2023-05-28T08:41:39;54983.09;;;-146.72;73.13
40994;BME280;26722;43.212;27.932;2023-05-28T08:44:05;54976.75;;;-146.72;73.30
40994;BME280;26722;43.212;27.932;2023-05-28T08:46:30;54997.88;;;-146.72;74.21
40994;BME280;26722;43.212;27.932;2023-05-28T08:48:57;54989.41;;;-146.72;74.55
40994;BME280;26722;43.212;27.932;2023-05-28T08:51:23;54985.19;;;-146.72;73.79
40994;BME280;26722;43.212;27.932;2023-05-28T08:53:49;54983.09;;;-146.72;72.94
40994;BME280;26722;43.212;27.932;2023-05-28T08:56:16;54970.41;;;-146.72;71.49
40994;BME280;26722;43.212;27.932;2023-05-28T08:58:43;54985.19;;;-146.72;70.64
40994;BME280;26722;43.212;27.932;2023-05-28T09:01:09;54968.31;;;-146.72;70.83
40994;BME280;26722;43.212;27.932;2023-05-28T09:03:34;54972.53;;;-146.72;70.72
40994;BME280;26722;43.212;27.932;2023-05-28T09:06:00;54978.88;;;-146.72;69.61
40994;BME280;26722;43.212;27.932;2023-05-28T09:08:26;54972.53;;;-146.72;69.14
40994;BME280;26722;43.212;27.932;2023-05-28T09:10:51;54966.19;;;-146.72;69.39
40994;BME280;26722;43.212;27.932;2023-05-28T09:13:20;54968.31;;;-146.72;68.81
40994;BME280;26722;43.212;27.932;2023-05-28T09:15:49;54976.75;;;-146.72;68.22
40994;BME280;26722;43.212;27.932;2023-05-28T09:18:18;54970.41;;;-146.72;66.05
40994;BME280;26722;43.212;27.932;2023-05-28T09:20:44;54942.97;;;-146.72;65.11
40994;BME280;26722;43.212;27.932;2023-05-28T09:23:09;54942.97;;;-146.72;63.03
40994;BME280;26722;43.212;27.932;2023-05-28T09:25:35;54947.19;;;-146.72;61.41
40994;BME280;26722;43.212;27.932;2023-05-28T09:28:01;54938.75;;;-146.72;59.71
40994;BME280;26722;43.212;27.932;2023-05-28T09:30:26;54930.31;;;-146.72;60.54
40994;BME280;26722;43.212;27.932;2023-05-28T09:33:00;54930.31;;;-146.72;60.95
40994;BME280;26722;43.212;27.932;2023-05-28T09:35:26;54930.31;;;-146.72;59.88
40994;BME280;26722;43.212;27.932;2023-05-28T09:38:08;54926.09;;;-146.72;59.76
40994;BME280;26722;43.212;27.932;2023-05-28T09:40:40;54930.31;;;-146.72;60.31
40994;BME280;26722;43.212;27.932;2023-05-28T09:43:06;54949.31;;;-146.72;59.92
40994;BME280;26722;43.212;27.932;2023-05-28T09:45:32;54940.88;;;-146.72;58.61
40994;BME280;26722;43.212;27.932;2023-05-28T09:47:58;54940.88;;;-146.72;57.09
40994;BME280;26722;43.212;27.932;2023-05-28T09:50:24;54930.31;;;-146.72;55.65
40994;BME280;26722;43.212;27.932;2023-05-28T09:52:49;54942.97;;;-146.72;57.40
40994;BME280;26722;43.212;27.932;2023-05-28T09:55:18;54945.09;;;-146.72;57.27
40994;BME280;26722;43.212;27.932;2023-05-28T09:57:51;54938.75;;;-146.72;56.94
40994;BME280;26722;43.212;27.932;2023-05-28T10:00:22;54926.09;;;-146.72;58.02
40994;BME280;26722;43.212;27.932;2023-05-28T10:02:55;54936.63;;;-146.72;57.05
40994;BME280;26722;43.212;27.932;2023-05-28T10:05:21;54926.09;;;-146.72;57.12
40994;BME280;26722;43.212;27.932;2023-05-28T10:07:48;54928.19;;;-146.72;56.84
40994;BME280;26722;43.212;27.932;2023-05-28T10:10:16;54934.53;;;-146.72;57.91
40994;BME280;26722;43.212;27.932;2023-05-28T10:12:41;54921.88;;;-146.72;58.45
40994;BME280;26722;43.212;27.932;2023-05-28T10:15:07;54942.97;;;-146.72;57.56
40994;BME280;26722;43.212;27.932;2023-05-28T10:17:34;54938.75;;;-146.72;58.09
40994;BME280;26722;43.212;27.932;2023-05-28T10:20:00;54926.09;;;-146.72;58.25
40994;BME280;26722;43.212;27.932;2023-05-28T10:22:25;54934.53;;;-146.72;56.82
40994;BME280;26722;43.212;27.932;2023-05-28T10:24:51;54928.19;;;-146.72;56.17
40994;BME280;26722;43.212;27.932;2023-05-28T10:27:16;54926.09;;;-146.72;55.66
40994;BME280;26722;43.212;27.932;2023-05-28T10:29:44;54930.31;;;-146.72;56.01
40994;BME280;26722;43.212;27.932;2023-05-28T10:32:14;54934.53;;;-146.72;55.24
40994;BME280;26722;43.212;27.932;2023-05-28T10:34:39;54909.19;;;-146.72;55.37
40994;BME280;26722;43.212;27.932;2023-05-28T10:37:09;54919.75;;;-146.72;56.11
40994;BME280;26722;43.212;27.932;2023-05-28T10:39:38;54902.84;;;-146.72;57.05
40994;BME280;26722;43.212;27.932;2023-05-28T10:42:04;54926.09;;;-146.72;58.22
40994;BME280;26722;43.212;27.932;2023-05-28T10:47:15;54930.31;;;-146.72;60.47
40994;BME280;26722;43.212;27.932;2023-05-28T10:52:26;54930.31;;;-146.72;62.01
40994;BME280;26722;43.212;27.932;2023-05-28T10:54:52;54926.09;;;-146.72;62.95
40994;BME280;26722;43.212;27.932;2023-05-28T10:57:17;54934.53;;;-146.72;62.97
40994;BME280;26722;43.212;27.932;2023-05-28T11:02:10;54940.88;;;-146.72;63.17
40994;BME280;26722;43.212;27.932;2023-05-28T11:04:35;54945.09;;;-146.72;63.39
40994;BME280;26722;43.212;27.932;2023-05-28T11:07:01;54957.75;;;-146.72;64.09
40994;BME280;26722;43.212;27.932;2023-05-28T11:09:26;54955.63;;;-146.72;63.40
40994;BME280;26722;43.212;27.932;2023-05-28T11:11:52;54953.53;;;-146.72;63.74
40994;BME280;26722;43.212;27.932;2023-05-28T11:14:17;54938.75;;;-146.72;63.66
40994;BME280;26722;43.212;27.932;2023-05-28T11:16:43;54936.63;;;-146.72;62.92
40994;BME280;26722;43.212;27.932;2023-05-28T11:19:08;54926.09;;;-146.72;62.68
40994;BME280;26722;43.212;27.932;2023-05-28T11:21:49;54930.31;;;-146.72;62.61
40994;BME280;26722;43.212;27.932;2023-05-28T11:24:14;54919.75;;;-146.72;61.70
40994;BME280;26722;43.212;27.932;2023-05-28T11:26:39;54917.63;;;-146.72;61.31
40994;BME280;26722;43.212;27.932;2023-05-28T11:29:05;54913.41;;;-146.72;59.87
40994;BME280;26722;43.212;27.932;2023-05-28T11:31:36;54919.75;;;-146.72;60.83
40994;BME280;26722;43.212;27.932;2023-05-28T11:34:02;54926.09;;;-146.72;60.93
40994;BME280;26722;43.212;27.932;2023-05-28T11:36:27;54934.53;;;-146.72;60.47
40994;BME280;26722;43.212;27.932;2023-05-28T11:39:02;54909.19;;;-146.72;60.04
40994;BME280;26722;43.212;27.932;2023-05-28T11:41:27;54913.41;;;-146.72;59.62
40994;BME280;26722;43.212;27.932;2023-05-28T11:43:53;54900.75;;;-146.72;57.98
40994;BME280;26722;43.212;27.932;2023-05-28T11:46:21;54900.75;;;-146.72;56.54
40994;BME280;26722;43.212;27.932;2023-05-28T11:48:46;54900.75;;;-146.72;56.20
40994;BME280;26722;43.212;27.932;2023-05-28T11:51:11;54896.53;;;-146.72;56.29
40994;BME280;26722;43.212;27.932;2023-05-28T11:53:38;54900.75;;;-146.72;56.27
40994;BME280;26722;43.212;27.932;2023-05-28T11:56:04;54883.84;;;-146.72;55.85
40994;BME280;26722;43.212;27.932;2023-05-28T11:58:30;54883.84;;;-146.72;55.65
40994;BME280;26722;43.212;27.932;2023-05-28T12:00:55;54866.97;;;-146.72;54.79
40994;BME280;26722;43.212;27.932;2023-05-28T12:03:21;54869.09;;;-146.72;54.53
40994;BME280;26722;43.212;27.932;2023-05-28T12:05:50;54864.88;;;-146.72;53.61
40994;BME280;26722;43.212;27.932;2023-05-28T12:08:17;54875.41;;;-146.72;54.30
40994;BME280;26722;43.212;27.932;2023-05-28T12:10:42;54883.84;;;-146.72;54.81
40994;BME280;26722;43.212;27.932;2023-05-28T12:13:08;54894.41;;;-146.72;55.65
40994;BME280;26722;43.212;27.932;2023-05-28T12:15:33;54879.63;;;-146.72;56.26
40994;BME280;26722;43.212;27.932;2023-05-28T12:17:59;54877.53;;;-146.72;55.64
40994;BME280;26722;43.212;27.932;2023-05-28T12:23:11;54883.84;;;-146.72;55.59
40994;BME280;26722;43.212;27.932;2023-05-28T12:28:08;54888.09;;;-146.72;56.73
40994;BME280;26722;43.212;27.932;2023-05-28T12:30:34;54900.75;;;-146.72;56.72
40994;BME280;26722;43.212;27.932;2023-05-28T12:32:59;54896.53;;;-146.72;57.13
40994;BME280;26722;43.212;27.932;2023-05-28T12:35:24;54885.97;;;-146.72;57.42
40994;BME280;26722;43.212;27.932;2023-05-28T12:37:50;54894.41;;;-146.72;57.07